sensor_id;sensor_type;location;lat;lon;timestamp;pressure;altitude;pressure_sealevel;temperature
76009;BMP280;64700;52.130;21.270;2023-02-28T00:00:19;102052.13;;;16.59
76009;BMP280;64700;52.130;21.270;2023-02-28T00:02:44;102056.78;;;16.55
76009;BMP280;64700;52.130;21.270;2023-02-28T00:05:11;102050.19;;;16.59
76009;BMP280;64700;52.130;21.270;2023-02-28T00:07:37;102055.63;;;16.56
76009;BMP280;64700;52.130;21.270;2023-02-28T00:10:04;102056.78;;;16.55
76009;BMP280;64700;52.130;21.270;2023-02-28T00:12:31;102066.41;;;16.56
76009;BMP280;64700;52.130;21.270;2023-02-28T00:14:57;102060.63;;;16.57
76009;BMP280;64700;52.130;21.270;2023-02-28T00:17:22;102057.53;;;16.55
76009;BMP280;64700;52.130;21.270;2023-02-28T00:19:49;102056.38;;;16.56
76009;BMP280;64700;52.130;21.270;2023-02-28T00:22:16;102057.16;;;16.53
76009;BMP280;64700;52.130;21.270;2023-02-28T00:24:41;102060.25;;;16.48
76009;BMP280;64700;52.130;21.270;2023-02-28T00:27:07;102063.75;;;16.52
76009;BMP280;64700;52.130;21.270;2023-02-28T00:29:32;102064.50;;;16.56
76009;BMP280;64700;52.130;21.270;2023-02-28T00:31:58;102063.38;;;16.50
76009;BMP280;64700;52.130;21.270;2023-02-28T00:34:23;102066.81;;;16.54
76009;BMP280;64700;52.130;21.270;2023-02-28T00:36:48;102069.50;;;16.54
76009;BMP280;64700;52.130;21.270;2023-02-28T00:39:14;102062.22;;;16.51
76009;BMP280;64700;52.130;21.270;2023-02-28T00:41:40;102062.22;;;16.47
76009;BMP280;64700;52.130;21.270;2023-02-28T00:44:05;102059.13;;;16.49
76009;BMP280;64700;52.130;21.270;2023-02-28T00:46:31;102070.31;;;16.47
76009;BMP280;64700;52.130;21.270;2023-02-28T00:48:56;102061.44;;;16.47
76009;BMP280;64700;52.130;21.270;2023-02-28T00:51:21;102063.75;;;16.48
76009;BMP280;64700;52.130;21.270;2023-02-28T00:53:47;102062.94;;;16.48
76009;BMP280;64700;52.130;21.270;2023-02-28T00:56:12;102061.09;;;16.41
76009;BMP280;64700;52.130;21.270;2023-02-28T00:58:38;102070.31;;;16.44
76009;BMP280;64700;52.130;21.270;2023-02-28T01:01:04;102062.97;;;16.44
76009;BMP280;64700;52.130;21.270;2023-02-28T01:03:29;102066.47;;;16.48
76009;BMP280;64700;52.130;21.270;2023-02-28T01:05:55;102068.78;;;16.46
76009;BMP280;64700;52.130;21.270;2023-02-28T01:08:21;102064.16;;;16.43
76009;BMP280;64700;52.130;21.270;2023-02-28T01:10:46;102058.78;;;16.40
76009;BMP280;64700;52.130;21.270;2023-02-28T01:13:12;102060.31;;;16.41
76009;BMP280;64700;52.130;21.270;2023-02-28T01:15:43;102061.84;;;16.38
76009;BMP280;64700;52.130;21.270;2023-02-28T01:18:10;102055.31;;;16.39
76009;BMP280;64700;52.130;21.270;2023-02-28T01:20:36;102056.84;;;16.33
76009;BMP280;64700;52.130;21.270;2023-02-28T01:23:02;102053.38;;;16.33
76009;BMP280;64700;52.130;21.270;2023-02-28T01:25:28;102063.03;;;16.34
76009;BMP280;64700;52.130;21.270;2023-02-28T01:27:53;102056.09;;;16.36
76009;BMP280;64700;52.130;21.270;2023-02-28T01:30:19;102058.81;;;16.36
76009;BMP280;64700;52.130;21.270;2023-02-28T01:32:44;102062.63;;;16.39
76009;BMP280;64700;52.130;21.270;2023-02-28T01:35:10;102070.38;;;16.37
76009;BMP280;64700;52.130;21.270;2023-02-28T01:37:36;102056.84;;;16.33
76009;BMP280;64700;52.130;21.270;2023-02-28T01:40:01;102069.56;;;16.33
76009;BMP280;64700;52.130;21.270;2023-02-28T01:42:27;102066.88;;;16.33
76009;BMP280;64700;52.130;21.270;2023-02-28T01:45:00;102061.47;;;16.33
76009;BMP280;64700;52.130;21.270;2023-02-28T01:47:31;102071.16;;;16.34
76009;BMP280;64700;52.130;21.270;2023-02-28T01:49:57;102076.16;;;16.35
76009;BMP280;64700;52.130;21.270;2023-02-28T01:52:24;102070.34;;;16.33
76009;BMP280;64700;52.130;21.270;2023-02-28T01:54:53;102071.88;;;16.38
76009;BMP280;64700;52.130;21.270;2023-02-28T01:57:21;102069.56;;;16.40
76009;BMP280;64700;52.130;21.270;2023-02-28T01:59:50;102068.81;;;16.39
76009;BMP280;64700;52.130;21.270;2023-02-28T02:02:18;102068.78;;;16.43
76009;BMP280;64700;52.130;21.270;2023-02-28T02:04:46;102073.41;;;16.42
76009;BMP280;64700;52.130;21.270;2023-02-28T02:07:14;102059.91;;;16.42
76009;BMP280;64700;52.130;21.270;2023-02-28T02:09:40;102059.91;;;16.46
76009;BMP280;64700;52.130;21.270;2023-02-28T02:12:11;102058.75;;;16.50
76009;BMP280;64700;52.130;21.270;2023-02-28T02:14:48;102064.13;;;16.50
76009;BMP280;64700;52.130;21.270;2023-02-28T02:17:28;102064.09;;;16.54
76009;BMP280;64700;52.130;21.270;2023-02-28T02:25:28;102064.06;;;16.68
76009;BMP280;64700;52.130;21.270;2023-02-28T02:30:45;102073.63;;;16.76
76009;BMP280;64700;52.130;21.270;2023-02-28T02:41:08;102074.78;;;16.82
76009;BMP280;64700;52.130;21.270;2023-02-28T02:46:10;102080.94;;;16.86
76009;BMP280;64700;52.130;21.270;2023-02-28T02:48:37;102074.38;;;16.84
76009;BMP280;64700;52.130;21.270;2023-02-28T02:51:06;102075.53;;;16.86
76009;BMP280;64700;52.130;21.270;2023-02-28T02:56:15;102072.84;;;16.83
76009;BMP280;64700;52.130;21.270;2023-02-28T02:58:43;102079.78;;;16.87
76009;BMP280;64700;52.130;21.270;2023-02-28T03:01:13;102082.47;;;16.84
76009;BMP280;64700;52.130;21.270;2023-02-28T03:03:39;102082.09;;;16.85
76009;BMP280;64700;52.130;21.270;2023-02-28T03:06:06;102086.72;;;16.88
76009;BMP280;64700;52.130;21.270;2023-02-28T03:08:34;102084.00;;;16.88
76009;BMP280;64700;52.130;21.270;2023-02-28T03:11:01;102084.34;;;16.98
76009;BMP280;64700;52.130;21.270;2023-02-28T03:16:06;102088.66;;;16.88
76009;BMP280;64700;52.130;21.270;2023-02-28T03:18:36;102083.22;;;16.92
76009;BMP280;64700;52.130;21.270;2023-02-28T03:21:14;102083.19;;;16.95
76009;BMP280;64700;52.130;21.270;2023-02-28T03:23:56;102098.25;;;16.96
76009;BMP280;64700;52.130;21.270;2023-02-28T03:26:25;102089.03;;;16.94
76009;BMP280;64700;52.130;21.270;2023-02-28T03:31:30;102093.97;;;17.02
76009;BMP280;64700;52.130;21.270;2023-02-28T03:33:59;102092.03;;;17.03
76009;BMP280;64700;52.130;21.270;2023-02-28T03:36:30;102092.06;;;16.96
76009;BMP280;64700;52.130;21.270;2023-02-28T03:38:58;102092.84;;;16.96
76009;BMP280;64700;52.130;21.270;2023-02-28T03:41:37;102097.47;;;16.99
76009;BMP280;64700;52.130;21.270;2023-02-28T03:44:15;102093.63;;;16.97
76009;BMP280;64700;52.130;21.270;2023-02-28T03:46:46;102099.75;;;17.01
76009;BMP280;64700;52.130;21.270;2023-02-28T03:49:17;102094.38;;;16.97
76009;BMP280;64700;52.130;21.270;2023-02-28T03:51:45;102100.13;;;17.03
76009;BMP280;64700;52.130;21.270;2023-02-28T03:54:13;102096.28;;;17.00
76009;BMP280;64700;52.130;21.270;2023-02-28T03:56:43;102095.94;;;16.98
76009;BMP280;64700;52.130;21.270;2023-02-28T04:01:38;102091.31;;;16.95
76009;BMP280;64700;52.130;21.270;2023-02-28T04:04:06;102102.13;;;16.92
76009;BMP280;64700;52.130;21.270;2023-02-28T04:06:32;102091.72;;;16.94
76009;BMP280;64700;52.130;21.270;2023-02-28T04:08:58;102093.25;;;16.91
76009;BMP280;64700;52.130;21.270;2023-02-28T04:13:53;102097.50;;;16.92
76009;BMP280;64700;52.130;21.270;2023-02-28T04:16:18;102093.97;;;17.02
76009;BMP280;64700;52.130;21.270;2023-02-28T04:18:44;102097.09;;;16.97
76009;BMP280;64700;52.130;21.270;2023-02-28T04:21:10;102099.81;;;16.90
76009;BMP280;64700;52.130;21.270;2023-02-28T04:23:35;102100.22;;;16.88
76009;BMP280;64700;52.130;21.270;2023-02-28T04:26:01;102104.09;;;16.87
76009;BMP280;64700;52.130;21.270;2023-02-28T04:28:26;102093.28;;;16.87
76009;BMP280;64700;52.130;21.270;2023-02-28T04:31:02;102106.38;;;16.89
76009;BMP280;64700;52.130;21.270;2023-02-28T04:33:27;102100.63;;;16.87
76009;BMP280;64700;52.130;21.270;2023-02-28T04:36:06;102101.75;;;16.89
76009;BMP280;64700;52.130;21.270;2023-02-28T04:38:33;102101.78;;;16.86
76009;BMP280;64700;52.130;21.270;2023-02-28T04:40:59;102105.66;;;16.81
76009;BMP280;64700;52.130;21.270;2023-02-28T04:43:25;102102.59;;;16.83
76009;BMP280;64700;52.130;21.270;2023-02-28T04:45:51;102104.09;;;16.84
76009;BMP280;64700;52.130;21.270;2023-02-28T04:48:16;102111.03;;;16.88
76009;BMP280;64700;52.130;21.270;2023-02-28T04:50:42;102106.78;;;16.87
76009;BMP280;64700;52.130;21.270;2023-02-28T04:53:07;102104.09;;;16.87
76009;BMP280;64700;52.130;21.270;2023-02-28T04:55:33;102099.50;;;16.81
76009;BMP280;64700;52.130;21.270;2023-02-28T04:57:58;102106.44;;;16.82
76009;BMP280;64700;52.130;21.270;2023-02-28T05:00:24;102106.81;;;16.77
76009;BMP280;64700;52.130;21.270;2023-02-28T05:02:50;102109.16;;;16.82
76009;BMP280;64700;52.130;21.270;2023-02-28T05:05:15;102113.00;;;16.77
76009;BMP280;64700;52.130;21.270;2023-02-28T05:07:46;102115.72;;;16.81
76009;BMP280;64700;52.130;21.270;2023-02-28T05:10:11;102117.25;;;16.75
76009;BMP280;64700;52.130;21.270;2023-02-28T05:12:37;102130.41;;;16.73
76009;BMP280;64700;52.130;21.270;2023-02-28T05:15:04;102124.97;;;16.76
76009;BMP280;64700;52.130;21.270;2023-02-28T05:17:30;102122.69;;;16.71
76009;BMP280;64700;52.130;21.270;2023-02-28T05:19:55;102120.75;;;16.72
76009;BMP280;64700;52.130;21.270;2023-02-28T05:22:21;102137.75;;;16.72
76009;BMP280;64700;52.130;21.270;2023-02-28T05:24:46;102135.38;;;16.74
76009;BMP280;64700;52.130;21.270;2023-02-28T05:27:11;102139.25;;;16.77
76009;BMP280;64700;52.130;21.270;2023-02-28T05:29:37;102137.31;;;16.74
76009;BMP280;64700;52.130;21.270;2023-02-28T05:32:15;102141.22;;;16.73
76009;BMP280;64700;52.130;21.270;2023-02-28T05:34:41;102138.88;;;16.75
76009;BMP280;64700;52.130;21.270;2023-02-28T05:37:10;102142.34;;;16.75
76009;BMP280;64700;52.130;21.270;2023-02-28T05:39:36;102142.34;;;16.75
76009;BMP280;64700;52.130;21.270;2023-02-28T05:42:02;102140.06;;;16.70
76009;BMP280;64700;52.130;21.270;2023-02-28T05:44:27;102149.69;;;16.78
76009;BMP280;64700;52.130;21.270;2023-02-28T05:46:53;102155.88;;;16.72
76009;BMP280;64700;52.130;21.270;2023-02-28T05:49:18;102161.66;;;16.70
76009;BMP280;64700;52.130;21.270;2023-02-28T05:51:44;102158.56;;;16.72
76009;BMP280;64700;52.130;21.270;2023-02-28T05:54:09;102168.22;;;16.73
76009;BMP280;64700;52.130;21.270;2023-02-28T05:56:35;102164.72;;;16.76
76009;BMP280;64700;52.130;21.270;2023-02-28T05:59:00;102169.75;;;16.77
76009;BMP280;64700;52.130;21.270;2023-02-28T06:01:33;102173.59;;;16.76
76009;BMP280;64700;52.130;21.270;2023-02-28T06:04:00;102167.03;;;16.74
76009;BMP280;64700;52.130;21.270;2023-02-28T06:06:25;102168.22;;;16.73
76009;BMP280;64700;52.130;21.270;2023-02-28T06:08:51;102182.09;;;16.75
76009;BMP280;64700;52.130;21.270;2023-02-28T06:11:16;102180.16;;;16.75
76009;BMP280;64700;52.130;21.270;2023-02-28T06:13:42;102181.34;;;16.71
76009;BMP280;64700;52.130;21.270;2023-02-28T06:16:08;102179.81;;;16.73
76009;BMP280;64700;52.130;21.270;2023-02-28T06:18:34;102178.25;;;16.72
76009;BMP280;64700;52.130;21.270;2023-02-28T06:20:59;102180.56;;;16.74
76009;BMP280;64700;52.130;21.270;2023-02-28T06:23:25;102173.25;;;16.71
76009;BMP280;64700;52.130;21.270;2023-02-28T06:25:50;102183.31;;;16.67
76009;BMP280;64700;52.130;21.270;2023-02-28T06:28:17;102178.66;;;16.71
76009;BMP280;64700;52.130;21.270;2023-02-28T06:30:43;102182.50;;;16.70
76009;BMP280;64700;52.130;21.270;2023-02-28T06:33:09;102183.63;;;16.79
76009;BMP280;64700;52.130;21.270;2023-02-28T06:35:34;102177.47;;;16.82
76009;BMP280;64700;52.130;21.270;2023-02-28T06:38:00;102175.13;;;16.84
76009;BMP280;64700;52.130;21.270;2023-02-28T06:40:25;102166.97;;;16.92
76009;BMP280;64700;52.130;21.270;2023-02-28T06:42:51;102168.50;;;16.96
76009;BMP280;64700;52.130;21.270;2023-02-28T06:45:17;102163.91;;;16.86
76009;BMP280;64700;52.130;21.270;2023-02-28T06:47:42;102169.69;;;16.92
76009;BMP280;64700;52.130;21.270;2023-02-28T06:50:11;102167.75;;;16.99
76009;BMP280;64700;52.130;21.270;2023-02-28T06:52:37;102164.63;;;17.04
76009;BMP280;64700;52.130;21.270;2023-02-28T06:55:05;102159.22;;;17.08
76009;BMP280;64700;52.130;21.270;2023-02-28T06:57:33;102155.69;;;17.14
76009;BMP280;64700;52.130;21.270;2023-02-28T06:59:59;102154.13;;;17.17
76009;BMP280;64700;52.130;21.270;2023-02-28T07:02:25;102153.72;;;17.15
76009;BMP280;64700;52.130;21.270;2023-02-28T07:04:51;102156.44;;;17.15
76009;BMP280;64700;52.130;21.270;2023-02-28T07:07:16;102149.84;;;17.23
76009;BMP280;64700;52.130;21.270;2023-02-28T07:09:42;102144.78;;;17.28
76009;BMP280;64700;52.130;21.270;2023-02-28T07:12:07;102151.69;;;17.33
76009;BMP280;64700;52.130;21.270;2023-02-28T07:14:33;102142.78;;;17.40
76009;BMP280;64700;52.130;21.270;2023-02-28T07:16:58;102147.06;;;17.34
76009;BMP280;64700;52.130;21.270;2023-02-28T07:19:24;102145.13;;;17.34
76009;BMP280;64700;52.130;21.270;2023-02-28T07:21:49;102150.97;;;17.29
76009;BMP280;64700;52.130;21.270;2023-02-28T07:24:15;102153.28;;;17.27
76009;BMP280;64700;52.130;21.270;2023-02-28T07:26:43;102157.94;;;17.26
76009;BMP280;64700;52.130;21.270;2023-02-28T07:29:08;102155.84;;;17.45
76009;BMP280;64700;52.130;21.270;2023-02-28T07:31:34;102166.25;;;17.53
76009;BMP280;64700;52.130;21.270;2023-02-28T07:33:59;102161.22;;;17.52
76009;BMP280;64700;52.130;21.270;2023-02-28T07:36:25;102158.50;;;17.55
76009;BMP280;64700;52.130;21.270;2023-02-28T07:38:51;102151.50;;;17.61
76009;BMP280;64700;52.130;21.270;2023-02-28T07:41:17;102151.47;;;17.69
76009;BMP280;64700;52.130;21.270;2023-02-28T07:43:43;102144.88;;;17.66
76009;BMP280;64700;52.130;21.270;2023-02-28T07:46:10;102145.34;;;17.57
76009;BMP280;64700;52.130;21.270;2023-02-28T07:48:37;102152.22;;;17.69
76009;BMP280;64700;52.130;21.270;2023-02-28T07:51:02;102153.69;;;17.77
76009;BMP280;64700;52.130;21.270;2023-02-28T07:53:28;102162.16;;;17.83
76009;BMP280;64700;52.130;21.270;2023-02-28T07:55:54;102164.44;;;17.88
76009;BMP280;64700;52.130;21.270;2023-02-28T07:58:20;102160.19;;;17.87
76009;BMP280;64700;52.130;21.270;2023-02-28T08:00:46;102158.47;;;18.03
76009;BMP280;64700;52.130;21.270;2023-02-28T08:03:11;102158.50;;;18.00
76009;BMP280;64700;52.130;21.270;2023-02-28T08:05:38;102158.50;;;18.00
76009;BMP280;64700;52.130;21.270;2023-02-28T08:08:07;102160.19;;;17.87
76009;BMP280;64700;52.130;21.270;2023-02-28T08:10:35;102153.47;;;18.02
76009;BMP280;64700;52.130;21.270;2023-02-28T08:13:01;102158.44;;;18.07
76009;BMP280;64700;52.130;21.270;2023-02-28T08:15:26;102166.97;;;18.05
76009;BMP280;64700;52.130;21.270;2023-02-28T08:17:58;102161.88;;;18.11
76009;BMP280;64700;52.130;21.270;2023-02-28T08:20:24;102156.56;;;18.00
76009;BMP280;64700;52.130;21.270;2023-02-28T08:22:50;102163.44;;;18.08
76009;BMP280;64700;52.130;21.270;2023-02-28T08:25:15;102152.19;;;18.14
76009;BMP280;64700;52.130;21.270;2023-02-28T08:27:40;102159.16;;;18.15
76009;BMP280;64700;52.130;21.270;2023-02-28T08:30:06;102157.59;;;18.14
76009;BMP280;64700;52.130;21.270;2023-02-28T08:32:32;102145.50;;;18.22
76009;BMP280;64700;52.130;21.270;2023-02-28T08:35:04;102151.69;;;18.22
76009;BMP280;64700;52.130;21.270;2023-02-28T08:37:30;102147.09;;;18.19
76009;BMP280;64700;52.130;21.270;2023-02-28T08:39:58;102150.91;;;18.25
76009;BMP280;64700;52.130;21.270;2023-02-28T08:42:23;102145.09;;;18.23
76009;BMP280;64700;52.130;21.270;2023-02-28T08:44:50;102160.00;;;18.04
76009;BMP280;64700;52.130;21.270;2023-02-28T08:47:16;102155.66;;;18.14
76009;BMP280;64700;52.130;21.270;2023-02-28T08:49:42;102160.63;;;18.19
76009;BMP280;64700;52.130;21.270;2023-02-28T08:52:07;102159.19;;;18.07
76009;BMP280;64700;52.130;21.270;2023-02-28T08:54:32;102154.44;;;18.19
76009;BMP280;64700;52.130;21.270;2023-02-28T08:56:59;102156.34;;;18.22
76009;BMP280;64700;52.130;21.270;2023-02-28T08:59:25;102156.09;;;18.09
76009;BMP280;64700;52.130;21.270;2023-02-28T09:01:50;102149.09;;;18.15
76009;BMP280;64700;52.130;21.270;2023-02-28T09:04:16;102156.66;;;18.31
76009;BMP280;64700;52.130;21.270;2023-02-28T09:06:41;102157.56;;;18.17
76009;BMP280;64700;52.130;21.270;2023-02-28T09:09:16;102159.88;;;18.19
76009;BMP280;64700;52.130;21.270;2023-02-28T09:11:42;102161.50;;;18.09
76009;BMP280;64700;52.130;21.270;2023-02-28T09:14:07;102164.00;;;18.30
76009;BMP280;64700;52.130;21.270;2023-02-28T09:16:33;102157.59;;;18.14
76009;BMP280;64700;52.130;21.270;2023-02-28T09:18:59;102166.28;;;18.35
76009;BMP280;64700;52.130;21.270;2023-02-28T09:21:25;102160.47;;;18.33
76009;BMP280;64700;52.130;21.270;2023-02-28T09:23:50;102160.88;;;18.32
76009;BMP280;64700;52.130;21.270;2023-02-28T09:26:17;102167.38;;;18.38
76009;BMP280;64700;52.130;21.270;2023-02-28T09:28:42;102163.19;;;18.33
76009;BMP280;64700;52.130;21.270;2023-02-28T09:31:15;102167.44;;;18.34
76009;BMP280;64700;52.130;21.270;2023-02-28T09:33:41;102172.91;;;18.31
76009;BMP280;64700;52.130;21.270;2023-02-28T09:36:06;102172.91;;;18.31
76009;BMP280;64700;52.130;21.270;2023-02-28T09:38:32;102162.78;;;18.35
76009;BMP280;64700;52.130;21.270;2023-02-28T09:40:59;102167.78;;;18.36
76009;BMP280;64700;52.130;21.270;2023-02-28T09:43:59;102167.50;;;18.31
76009;BMP280;64700;52.130;21.270;2023-02-28T09:49:14;102168.16;;;18.38
76009;BMP280;64700;52.130;21.270;2023-02-28T09:54:16;102160.00;;;18.42
76009;BMP280;64700;52.130;21.270;2023-02-28T09:57:19;102155.44;;;18.35
76009;BMP280;64700;52.130;21.270;2023-02-28T10:04:50;102163.50;;;18.42
76009;BMP280;64700;52.130;21.270;2023-02-28T10:10:02;102158.44;;;18.44
76009;BMP280;64700;52.130;21.270;2023-02-28T10:12:33;102166.91;;;18.46
76009;BMP280;64700;52.130;21.270;2023-02-28T10:15:03;102161.81;;;18.52
76009;BMP280;64700;52.130;21.270;2023-02-28T10:17:38;102166.91;;;18.46
76009;BMP280;64700;52.130;21.270;2023-02-28T10:20:07;102166.91;;;18.46
76009;BMP280;64700;52.130;21.270;2023-02-28T10:22:46;102164.97;;;18.47
76009;BMP280;64700;52.130;21.270;2023-02-28T10:25:20;102160.41;;;18.40
76009;BMP280;64700;52.130;21.270;2023-02-28T10:27:47;102155.75;;;18.41
76009;BMP280;64700;52.130;21.270;2023-02-28T10:30:14;102160.78;;;18.42
76009;BMP280;64700;52.130;21.270;2023-02-28T10:32:40;102158.06;;;18.42
76009;BMP280;64700;52.130;21.270;2023-02-28T10:35:14;102163.88;;;18.41
76009;BMP280;64700;52.130;21.270;2023-02-28T10:37:40;102165.50;;;18.35
76009;BMP280;64700;52.130;21.270;2023-02-28T10:40:25;102162.75;;;18.38
76009;BMP280;64700;52.130;21.270;2023-02-28T10:42:58;102166.28;;;18.35
76009;BMP280;64700;52.130;21.270;2023-02-28T10:45:24;102164.78;;;18.31
76009;BMP280;64700;52.130;21.270;2023-02-28T10:47:59;102160.94;;;18.28
76009;BMP280;64700;52.130;21.270;2023-02-28T10:52:54;102157.72;;;18.37
76009;BMP280;64700;52.130;21.270;2023-02-28T10:55:23;102160.84;;;18.35
76009;BMP280;64700;52.130;21.270;2023-02-28T10:57:50;102150.75;;;18.36
76009;BMP280;64700;52.130;21.270;2023-02-28T11:00:22;102153.97;;;18.27
76009;BMP280;64700;52.130;21.270;2023-02-28T11:02:48;102142.41;;;18.23
76009;BMP280;64700;52.130;21.270;2023-02-28T11:05:30;102139.66;;;18.27
76009;BMP280;64700;52.130;21.270;2023-02-28T11:10:39;102140.06;;;18.25
76009;BMP280;64700;52.130;21.270;2023-02-28T11:13:12;102132.31;;;18.27
76009;BMP280;64700;52.130;21.270;2023-02-28T11:15:40;102119.97;;;18.26
76009;BMP280;64700;52.130;21.270;2023-02-28T11:20:40;102121.13;;;18.22
76009;BMP280;64700;52.130;21.270;2023-02-28T11:23:06;102124.25;;;18.20
76009;BMP280;64700;52.130;21.270;2023-02-28T11:25:37;102116.94;;;18.17
76009;BMP280;64700;52.130;21.270;2023-02-28T11:28:04;102106.53;;;18.16
76009;BMP280;64700;52.130;21.270;2023-02-28T11:30:33;102106.47;;;18.19
76009;BMP280;64700;52.130;21.270;2023-02-28T11:32:59;102105.31;;;18.20
76009;BMP280;64700;52.130;21.270;2023-02-28T11:37:50;102101.47;;;18.18
76009;BMP280;64700;52.130;21.270;2023-02-28T11:40:18;102096.50;;;18.13
76009;BMP280;64700;52.130;21.270;2023-02-28T11:50:41;102088.41;;;18.09
76009;BMP280;64700;52.130;21.270;2023-02-28T11:55:45;102072.16;;;18.09
76009;BMP280;64700;52.130;21.270;2023-02-28T11:58:17;102065.97;;;18.08
76009;BMP280;64700;52.130;21.270;2023-02-28T12:05:46;102064.84;;;18.06
76009;BMP280;64700;52.130;21.270;2023-02-28T12:08:18;102054.78;;;18.06
76009;BMP280;64700;52.130;21.270;2023-02-28T12:13:21;102053.31;;;18.02
76009;BMP280;64700;52.130;21.270;2023-02-28T12:18:40;102060.66;;;18.01
76009;BMP280;64700;52.130;21.270;2023-02-28T12:21:13;102055.66;;;18.00
76009;BMP280;64700;52.130;21.270;2023-02-28T12:28:48;102041.66;;;18.05
76009;BMP280;64700;52.130;21.270;2023-02-28T12:31:20;102039.72;;;18.05
76009;BMP280;64700;52.130;21.270;2023-02-28T12:34:10;102041.28;;;18.03
76009;BMP280;64700;52.130;21.270;2023-02-28T12:36:32;102037.84;;;18.02
76009;BMP280;64700;52.130;21.270;2023-02-28T12:41:51;102024.00;;;17.97
76009;BMP280;64700;52.130;21.270;2023-02-28T12:44:32;102028.56;;;18.00
76009;BMP280;64700;52.130;21.270;2023-02-28T12:47:02;102025.50;;;17.98
76009;BMP280;64700;52.130;21.270;2023-02-28T12:49:33;102030.91;;;17.98
76009;BMP280;64700;52.130;21.270;2023-02-28T12:52:00;102026.28;;;17.95
76009;BMP280;64700;52.130;21.270;2023-02-28T12:54:35;102024.41;;;17.92
76009;BMP280;64700;52.130;21.270;2023-02-28T12:59:40;102028.34;;;17.87
76009;BMP280;64700;52.130;21.270;2023-02-28T13:10:23;102016.75;;;17.87
76009;BMP280;64700;52.130;21.270;2023-02-28T13:13:12;102007.13;;;17.79
76009;BMP280;64700;52.130;21.270;2023-02-28T13:15:56;101999.03;;;17.79
76009;BMP280;64700;52.130;21.270;2023-02-28T13:18:28;101998.28;;;17.78
76009;BMP280;64700;52.130;21.270;2023-02-28T13:20:55;102001.38;;;17.77
76009;BMP280;64700;52.130;21.270;2023-02-28T13:26:01;101993.66;;;17.75
76009;BMP280;64700;52.130;21.270;2023-02-28T13:31:17;101985.94;;;17.74
76009;BMP280;64700;52.130;21.270;2023-02-28T13:38:49;101983.66;;;17.72
76009;BMP280;64700;52.130;21.270;2023-02-28T13:49:31;101978.31;;;17.69
76009;BMP280;64700;52.130;21.270;2023-02-28T13:59:26;101958.31;;;17.59
76009;BMP280;64700;52.130;21.270;2023-02-28T14:02:03;101959.81;;;17.60
76009;BMP280;64700;52.130;21.270;2023-02-28T14:06:59;101946.25;;;17.67
76009;BMP280;64700;52.130;21.270;2023-02-28T14:09:27;101937.41;;;17.59
76009;BMP280;64700;52.130;21.270;2023-02-28T14:11:53;101942.09;;;17.55
76009;BMP280;64700;52.130;21.270;2023-02-28T14:17:16;101933.59;;;17.57
76009;BMP280;64700;52.130;21.270;2023-02-28T14:19:45;101940.94;;;17.56
76009;BMP280;64700;52.130;21.270;2023-02-28T14:37:53;101932.22;;;17.42
76009;BMP280;64700;52.130;21.270;2023-02-28T14:42:59;101936.00;;;17.48
76009;BMP280;64700;52.130;21.270;2023-02-28T14:45:25;101929.91;;;17.37
76009;BMP280;64700;52.130;21.270;2023-02-28T14:47:52;101932.25;;;17.38
76009;BMP280;64700;52.130;21.270;2023-02-28T14:50:19;101931.03;;;17.43
76009;BMP280;64700;52.130;21.270;2023-02-28T14:52:57;101922.97;;;17.39
76009;BMP280;64700;52.130;21.270;2023-02-28T14:55:43;101911.75;;;17.37
76009;BMP280;64700;52.130;21.270;2023-02-28T14:58:18;101913.78;;;17.29
76009;BMP280;64700;52.130;21.270;2023-02-28T15:00:48;101913.78;;;17.29
76009;BMP280;64700;52.130;21.270;2023-02-28T15:03:19;101907.63;;;17.29
76009;BMP280;64700;52.130;21.270;2023-02-28T15:05:54;101911.38;;;17.35
76009;BMP280;64700;52.130;21.270;2023-02-28T15:08:26;101911.50;;;17.28
76009;BMP280;64700;52.130;21.270;2023-02-28T15:11:19;101918.13;;;17.23
76009;BMP280;64700;52.130;21.270;2023-02-28T15:13:50;101911.88;;;17.26
76009;BMP280;64700;52.130;21.270;2023-02-28T15:16:19;101909.59;;;17.25
76009;BMP280;64700;52.130;21.270;2023-02-28T15:21:44;101905.78;;;17.19
76009;BMP280;64700;52.130;21.270;2023-02-28T15:26:40;101923.16;;;17.18
76009;BMP280;64700;52.130;21.270;2023-02-28T15:29:07;101920.41;;;17.21
76009;BMP280;64700;52.130;21.270;2023-02-28T15:31:39;101920.50;;;17.14
76009;BMP280;64700;52.130;21.270;2023-02-28T15:34:06;101912.41;;;17.14
76009;BMP280;64700;52.130;21.270;2023-02-28T15:36:33;101920.09;;;17.16
76009;BMP280;64700;52.130;21.270;2023-02-28T15:39:03;101917.44;;;17.12
76009;BMP280;64700;52.130;21.270;2023-02-28T15:41:29;101913.19;;;17.11
76009;BMP280;64700;52.130;21.270;2023-02-28T15:44:17;101908.59;;;17.05
76009;BMP280;64700;52.130;21.270;2023-02-28T15:46:43;101914.78;;;17.05
76009;BMP280;64700;52.130;21.270;2023-02-28T15:49:17;101919.50;;;16.98
76009;BMP280;64700;52.130;21.270;2023-02-28T15:51:44;101911.41;;;16.98
76009;BMP280;64700;52.130;21.270;2023-02-28T15:54:14;101911.41;;;16.98
76009;BMP280;64700;52.130;21.270;2023-02-28T15:56:43;101917.19;;;16.96
76009;BMP280;64700;52.130;21.270;2023-02-28T15:59:14;101914.50;;;16.93
76009;BMP280;64700;52.130;21.270;2023-02-28T16:01:40;101916.06;;;16.90
76009;BMP280;64700;52.130;21.270;2023-02-28T16:04:11;101918.41;;;16.88
76009;BMP280;64700;52.130;21.270;2023-02-28T16:06:54;101916.09;;;16.86
76009;BMP280;64700;52.130;21.270;2023-02-28T16:09:25;101918.81;;;16.86
76009;BMP280;64700;52.130;21.270;2023-02-28T16:11:53;101929.25;;;16.84
76009;BMP280;64700;52.130;21.270;2023-02-28T16:14:23;101927.34;;;16.81
76009;BMP280;64700;52.130;21.270;2023-02-28T16:17:22;101928.91;;;16.79
76009;BMP280;64700;52.130;21.270;2023-02-28T16:19:48;101926.25;;;16.72